createdAt,value
2023-01-02T00:00:00.919Z,59.30
2023-01-02T00:02:45.103Z,59.60
2023-01-02T00:05:35.075Z,59.50
2023-01-02T00:08:21.336Z,59.10
2023-01-02T00:11:18.984Z,59.40
2023-01-02T00:13:52.597Z,59.30
2023-01-02T00:16:43.614Z,59.70
2023-01-02T00:19:26.905Z,59.40
2023-01-02T00:22:14.172Z,59.40
2023-01-02T00:25:07.819Z,59.40
2023-01-02T00:28:08.444Z,59.50
2023-01-02T00:30:56.254Z,59.50
2023-01-02T00:34:00.151Z,59.50
2023-01-02T00:37:07.122Z,59.80
2023-01-02T00:43:01.877Z,59.40
2023-01-02T00:45:43.753Z,59.60
2023-01-02T00:48:31.663Z,59.50
2023-01-02T00:51:26.381Z,59.60
2023-01-02T00:54:41.453Z,59.60
2023-01-02T00:57:40.969Z,59.50
2023-01-02T01:00:38.777Z,59.60
2023-01-02T01:03:31.449Z,59.50
2023-01-02T01:06:26.287Z,59.70
2023-01-02T01:09:15.193Z,59.50
2023-01-02T01:15:55.266Z,59.80
2023-01-02T01:18:57.260Z,59.80
2023-01-02T01:21:40.636Z,59.70
2023-01-02T01:24:17.841Z,59.70
2023-01-02T01:26:50.580Z,59.50
2023-01-02T01:29:36.224Z,59.70
2023-01-02T01:32:09.560Z,59.80
2023-01-02T01:34:44.382Z,59.40
2023-01-02T01:37:18.504Z,59.70
2023-01-02T01:39:56.510Z,59.40
2023-01-02T01:42:41.616Z,59.70
2023-01-02T01:45:34.751Z,59.20
2023-01-02T01:48:25.241Z,59.50
2023-01-02T01:55:15.965Z,59.40
2023-01-02T01:58:10.191Z,59.10
2023-01-02T02:00:52.075Z,59.30
2023-01-02T02:03:42.565Z,59.20
2023-01-02T02:06:20.760Z,59.00
2023-01-02T02:08:56.131Z,59.00
2023-01-02T02:12:11.275Z,58.90
2023-01-02T02:14:58.346Z,58.80
2023-01-02T02:18:12.806Z,58.90
2023-01-02T02:21:19.961Z,58.40
2023-01-02T02:24:36.570Z,58.50
2023-01-02T02:30:50.593Z,58.50
2023-01-02T02:33:44.839Z,58.60
2023-01-02T02:36:31.992Z,58.60
2023-01-02T02:39:26.031Z,58.70
2023-01-02T02:42:03.477Z,58.40
2023-01-02T02:45:10.400Z,58.80
2023-01-02T02:48:03.032Z,58.70
2023-01-02T02:50:43.052Z,58.60
2023-01-02T02:53:24.785Z,58.60
2023-01-02T02:56:14.781Z,58.60
2023-01-02T02:59:17.859Z,58.70
2023-01-02T03:01:58.427Z,58.60
2023-01-02T03:04:42.395Z,58.30
2023-01-02T03:07:38.781Z,58.60
2023-01-02T03:10:29.596Z,58.30
2023-01-02T03:13:21.115Z,58.50
2023-01-02T03:16:38.574Z,58.20
2023-01-02T03:19:47.922Z,58.20
2023-01-02T03:23:06.739Z,58.40
2023-01-02T03:28:49.605Z,58.40
2023-01-02T03:31:30.777Z,58.40
2023-01-02T03:34:25.282Z,58.20
2023-01-02T03:37:13.300Z,58.20
2023-01-02T03:39:55.383Z,58.20
2023-01-02T03:42:46.639Z,58.10
2023-01-02T03:45:37.324Z,58.10
2023-01-02T03:48:41.320Z,58.00
2023-01-02T03:51:25.590Z,58.20
2023-01-02T03:53:58.040Z,58.10
2023-01-02T03:57:09.535Z,58.50
2023-01-02T04:00:02.845Z,58.20
2023-01-02T04:03:03.048Z,58.30
2023-01-02T04:06:33.696Z,58.50
2023-01-02T04:09:32.385Z,58.10
2023-01-02T04:12:33.316Z,58.20
2023-01-02T04:15:17.753Z,58.00
2023-01-02T04:17:59.456Z,57.90
2023-01-02T04:20:48.187Z,58.20
2023-01-02T04:23:52.501Z,58.20
2023-01-02T04:26:45.060Z,58.00
2023-01-02T04:29:31.206Z,58.20
2023-01-02T04:32:17.666Z,58.20
2023-01-02T04:35:01.996Z,58.20
2023-01-02T04:37:51.237Z,58.30
2023-01-02T04:40:42.199Z,58.30
2023-01-02T04:43:36.853Z,58.20
2023-01-02T04:46:11.837Z,58.00
2023-01-02T04:48:58.020Z,58.20
2023-01-02T04:51:54.403Z,58.10
2023-01-02T04:54:35.274Z,58.40
2023-01-02T04:57:26.214Z,58.00
2023-01-02T05:03:14.788Z,58.20
2023-01-02T05:05:57.251Z,58.10
2023-01-02T05:08:35.952Z,58.40
2023-01-02T05:11:32.749Z,58.30
2023-01-02T05:14:19.434Z,58.40
2023-01-02T05:17:23.368Z,58.20
2023-01-02T05:20:30.543Z,58.30
2023-01-02T05:23:19.080Z,58.10
2023-01-02T05:25:52.277Z,58.20
2023-01-02T05:28:20.919Z,58.20
2023-01-02T05:30:52.653Z,58.10
2023-01-02T05:33:35.968Z,58.20
2023-01-02T05:36:19.239Z,58.10
2023-01-02T05:39:05.224Z,58.10
2023-01-02T05:41:33.607Z,58.10
2023-01-02T05:44:08.668Z,58.10
2023-01-02T05:46:38.418Z,58.20
2023-01-02T05:49:43.612Z,58.10
2023-01-02T05:52:48.352Z,58.10
2023-01-02T05:56:05.266Z,58.20
2023-01-02T05:58:48.249Z,58.20
2023-01-02T06:01:25.188Z,58.30
2023-01-02T06:03:55.188Z,58.20
2023-01-02T06:06:45.893Z,58.40
2023-01-02T06:09:30.655Z,58.30
2023-01-02T06:12:08.952Z,58.30
2023-01-02T06:14:55.322Z,58.50
2023-01-02T06:17:48.289Z,58.40
2023-01-02T06:20:50.171Z,58.60
2023-01-02T06:23:32.999Z,58.70
2023-01-02T06:26:20.628Z,58.20
2023-01-02T06:29:10.802Z,58.60
2023-01-02T06:32:15.320Z,58.40
2023-01-02T06:35:10.468Z,58.30
2023-01-02T06:37:50.197Z,58.60
2023-01-02T06:40:31.625Z,58.60
2023-01-02T06:43:18.678Z,58.60
2023-01-02T06:46:18.071Z,58.70
2023-01-02T06:52:03.907Z,58.60
2023-01-02T06:54:38.791Z,58.90
2023-01-02T06:57:25.521Z,59.00
2023-01-02T07:00:26.525Z,58.90
2023-01-02T07:03:09.855Z,58.80
2023-01-02T07:05:59.619Z,58.70
2023-01-02T07:18:07.540Z,59.10
2023-01-02T07:21:23.737Z,59.10
2023-01-02T07:24:41.395Z,59.40
2023-01-02T07:27:36.580Z,59.50
2023-01-02T07:30:26.700Z,59.70
2023-01-02T07:37:45.799Z,59.80
2023-01-02T07:40:22.735Z,59.70
2023-01-02T07:43:13.291Z,60.00
2023-01-02T07:45:50.614Z,60.10
2023-01-02T07:48:33.229Z,60.60
2023-01-02T07:51:27.462Z,60.40
2023-01-02T07:54:40.451Z,60.40
2023-01-02T07:57:09.557Z,60.40
2023-01-02T07:59:52.677Z,60.90
2023-01-02T08:06:35.053Z,60.90
2023-01-02T08:12:39.002Z,61.00
2023-01-02T11:04:51.893Z,59.80
2023-01-02T12:02:34.542Z,60.00
2023-01-02T12:05:18.234Z,59.90
2023-01-02T12:08:14.733Z,60.00
2023-01-02T12:11:32.126Z,60.10
2023-01-02T12:14:18.263Z,60.10
2023-01-02T12:20:29.492Z,60.20
2023-01-02T13:51:56.233Z,57.40
2023-01-02T14:41:00.603Z,58.70
2023-01-02T14:44:22.761Z,58.80
2023-01-02T14:47:09.758Z,58.80
2023-01-02T15:06:39.237Z,59.00
2023-01-02T15:10:00.404Z,58.80
2023-01-02T15:21:14.539Z,59.10
2023-01-02T15:23:49.219Z,59.40
2023-01-02T15:31:01.706Z,59.40
2023-01-02T15:34:32.182Z,59.40
2023-01-02T15:37:22.594Z,59.30
2023-01-02T15:40:10.414Z,59.70
2023-01-02T15:42:59.247Z,59.70
2023-01-02T15:45:56.412Z,59.80
2023-01-02T15:48:34.222Z,59.90
2023-01-02T15:51:15.418Z,59.80
2023-01-02T15:54:08.654Z,59.90
2023-01-02T15:56:58.185Z,59.80
2023-01-02T16:19:26.634Z,59.70
2023-01-02T16:25:23.120Z,60.20
2023-01-02T16:28:34.165Z,60.00
2023-01-02T16:44:11.835Z,60.20
2023-01-02T17:20:42.441Z,59.60
2023-01-02T17:23:14.895Z,59.80
2023-01-02T17:25:57.858Z,59.60
2023-01-02T17:28:38.202Z,59.00
2023-01-02T17:48:01.206Z,58.20
2023-01-02T17:51:33.596Z,58.20
2023-01-02T18:11:05.503Z,58.00
2023-01-02T18:14:16.415Z,58.00
2023-01-02T18:16:55.024Z,58.10
2023-01-02T18:19:42.363Z,58.10
2023-01-02T18:22:24.522Z,57.60
2023-01-02T18:25:20.428Z,57.90
2023-01-02T18:28:22.711Z,57.90
2023-01-02T18:31:02.466Z,57.50
2023-01-02T18:37:49.081Z,57.70
2023-01-02T18:40:35.741Z,57.40
2023-01-02T18:43:57.179Z,57.90
2023-01-02T18:47:03.318Z,57.70
2023-01-02T19:15:31.373Z,57.70
2023-01-02T19:21:45.131Z,58.00
2023-01-02T19:24:44.967Z,58.40
2023-01-02T19:27:39.041Z,58.10
2023-01-02T19:35:04.609Z,58.20
2023-01-02T19:35:05.341Z,58.10
2023-01-02T19:38:08.423Z,58.30
2023-01-02T19:40:50.086Z,58.40
2023-01-02T19:43:48.670Z,58.20
2023-01-02T19:46:39.248Z,58.10
2023-01-02T19:49:23.556Z,58.40
2023-01-02T19:52:04.465Z,58.40
2023-01-02T19:54:50.360Z,58.20
2023-01-02T20:23:51.518Z,61.90
2023-01-02T20:26:24.774Z,62.90
2023-01-02T20:29:02.956Z,63.70
2023-01-02T20:36:19.389Z,65.90
2023-01-02T20:39:23.287Z,66.90
2023-01-02T20:50:00.035Z,68.90
2023-01-02T20:56:27.345Z,70.30
2023-01-02T20:59:09.032Z,71.30
2023-01-02T21:05:59.744Z,71.80
2023-01-02T22:06:22.595Z,73.30
2023-01-02T22:08:53.896Z,73.40
2023-01-02T22:11:41.746Z,73.70
2023-01-02T22:14:24.236Z,73.60
2023-01-02T22:17:22.291Z,73.60
2023-01-02T22:20:11.592Z,73.90
